Time;durP1;ratioP1;P1;durP2;ratioP2;P2;SDS_P1;SDS_P2;PMS_P1;PMS_P2;Temp;Humidity;BMP_temperature;BMP_pressure;BME280_temperature;BME280_humidity;BME280_pressure;Samples;Min_cycle;Max_cycle;Signal;HPM_P1;HPM_P2
2022/04/02 00:01:58;;;;;;;2.58;1.98;;;1.40;99.90;;;;;;5010565;28;20220;-80
2022/04/02 00:04:24;;;;;;;2.60;2.25;;;1.30;99.90;;;;;;5001049;28;20221;-81
2022/04/02 00:06:53;;;;;;;6.78;2.60;;;1.40;99.90;;;;;;4998695;28;20274;-79
2022/04/02 00:09:20;;;;;;;4.55;3.40;;;1.50;99.90;;;;;;4997928;28;20229;-79
2022/04/02 00:11:47;;;;;;;4.75;2.88;;;1.50;1.00;;;;;;4998881;28;20220;-81
2022/04/02 00:14:14;;;;;;;2.92;2.60;;;1.40;1.00;;;;;;4997989;28;20226;-80
2022/04/02 00:16:41;;;;;;;3.42;2.30;;;;;;;;;;4998932;28;20209;-82
2022/04/02 00:19:08;;;;;;;2.97;2.70;;;1.40;1.00;;;;;;4998946;28;20233;-81
2022/04/02 00:21:37;;;;;;;3.00;2.70;;;1.30;1.00;;;;;;5000298;28;20318;-80
2022/04/02 00:24:06;;;;;;;2.85;2.40;;;1.50;1.00;;;;;;4998861;28;20640;-80
2022/04/02 00:26:33;;;;;;;5.18;3.30;;;1.40;1.00;;;;;;5008747;28;20228;-79
2022/04/02 00:29:00;;;;;;;3.15;2.63;;;0.90;1.00;;;;;;5012277;28;20229;-80
2022/04/02 00:31:29;;;;;;;4.20;2.63;;;1.30;1.00;;;;;;5014453;28;20204;-79
2022/04/02 00:33:56;;;;;;;10.65;3.22;;;1.10;1.00;;;;;;5010843;28;20211;-80
2022/04/02 00:36:22;;;;;;;4.93;3.22;;;1.10;1.00;;;;;;5014431;28;20216;-80
2022/04/02 00:38:49;;;;;;;4.72;3.20;;;1.80;1.00;;;;;;5006158;28;20205;-79
2022/04/02 00:41:17;;;;;;;5.70;3.13;;;1.50;1.00;;;;;;5005934;28;20626;-79
2022/04/02 00:43:57;;;;;;;3.47;2.15;;;2.30;1.00;;;;;;5007549;28;20231;-79
2022/04/02 00:46:24;;;;;;;3.10;2.90;;;1.30;1.00;;;;;;5007627;28;20193;-79
2022/04/02 00:48:51;;;;;;;4.03;2.95;;;1.10;1.00;;;;;;5011519;28;20201;-79
2022/04/02 00:51:18;;;;;;;2.85;2.65;;;1.00;1.00;;;;;;5005418;28;20217;-80
2022/04/02 00:53:48;;;;;;;3.00;2.70;;;1.40;1.00;;;;;;5002196;28;20201;-79
2022/04/02 00:56:17;;;;;;;3.13;2.67;;;1.20;1.00;;;;;;4996895;28;20204;-79
2022/04/02 00:58:45;;;;;;;5.65;2.45;;;1.30;1.00;;;;;;4996246;28;20228;-80
2022/04/02 01:01:12;;;;;;;6.05;3.10;;;1.20;99.90;;;;;;4996977;28;20205;-80
2022/04/02 01:03:39;;;;;;;2.63;2.42;;;1.10;99.90;;;;;;4996594;28;20303;-81
2022/04/02 01:06:06;;;;;;;4.47;2.75;;;1.40;99.90;;;;;;4996372;28;20224;-79
2022/04/02 01:08:33;;;;;;;4.40;3.15;;;1.10;99.90;;;;;;4995606;28;20201;-79
2022/04/02 01:11:00;;;;;;;4.72;2.60;;;1.10;99.90;;;;;;4995558;28;20257;-79
2022/04/02 01:13:28;;;;;;;5.53;2.55;;;1.10;99.90;;;;;;4995925;28;20233;-80
2022/04/02 01:15:54;;;;;;;4.55;2.42;;;1.10;99.90;;;;;;4998587;28;20232;-81
2022/04/02 01:18:21;;;;;;;2.95;2.72;;;1.10;99.90;;;;;;4997445;28;20750;-79
2022/04/02 01:20:48;;;;;;;2.75;2.45;;;1.10;99.90;;;;;;4996260;28;20315;-81
2022/04/02 01:23:16;;;;;;;3.63;2.97;;;1.10;99.90;;;;;;4998649;28;20583;-79
2022/04/02 01:25:42;;;;;;;4.32;3.92;;;1.00;99.90;;;;;;4998829;28;20259;-79
2022/04/02 01:28:09;;;;;;;2.85;2.65;;;1.10;99.90;;;;;;4998815;28;20560;-79
2022/04/02 01:30:36;;;;;;;3.83;2.83;;;1.10;1.70;;;;;;4998305;28;20256;-79
2022/04/02 01:33:02;;;;;;;2.63;2.42;;;1.00;99.90;;;;;;4998357;28;20624;-80
2022/04/02 01:35:29;;;;;;;6.80;2.80;;;1.10;99.90;;;;;;4998580;28;20209;-80
2022/04/02 01:37:55;;;;;;;5.63;2.90;;;1.10;99.90;;;;;;4998138;28;20695;-80
2022/04/02 01:40:23;;;;;;;6.47;3.35;;;1.10;99.90;;;;;;4998850;28;20229;-79
2022/04/02 01:42:50;;;;;;;5.45;2.97;;;1.20;99.90;;;;;;4999808;28;20210;-79
2022/04/02 01:45:17;;;;;;;3.20;2.90;;;1.10;99.90;;;;;;4999643;28;20224;-79
2022/04/02 01:47:43;;;;;;;3.95;3.25;;;1.10;99.90;;;;;;5000073;28;20209;-81
2022/04/02 01:50:11;;;;;;;2.40;2.20;;;1.20;99.90;;;;;;4998750;28;20233;-79
2022/04/02 01:52:38;;;;;;;4.40;2.97;;;1.20;99.90;;;;;;4998573;28;20296;-80
2022/04/02 01:55:06;;;;;;;5.00;2.72;;;1.20;99.90;;;;;;4998725;28;20269;-79
2022/04/02 01:57:35;;;;;;;2.55;2.35;;;1.40;9.10;;;;;;4999670;28;20209;-80
2022/04/02 02:00:02;;;;;;;3.17;2.28;;;1.20;1.00;;;;;;4997938;28;20225;-80
2022/04/02 02:02:28;;;;;;;4.47;2.67;;;1.20;99.90;;;;;;4998267;28;20201;-80
2022/04/02 02:04:56;;;;;;;3.03;2.70;;;1.10;1.00;;;;;;4998714;28;20217;-80
2022/04/02 02:07:22;;;;;;;3.17;2.70;;;1.20;99.90;;;;;;4997630;28;20205;-80
2022/04/02 02:09:49;;;;;;;2.83;2.63;;;1.20;99.90;;;;;;4998551;28;20221;-80
2022/04/02 02:12:16;;;;;;;3.67;3.20;;;1.20;1.00;;;;;;4998118;28;20256;-80
2022/04/02 02:14:44;;;;;;;2.88;2.67;;;1.10;1.00;;;;;;4998420;28;20204;-80
2022/04/02 02:17:10;;;;;;;3.80;3.08;;;1.20;1.00;;;;;;5003837;28;20201;-79
2022/04/02 02:19:37;;;;;;;10.65;2.28;;;1.10;1.00;;;;;;5000650;28;20225;-80
2022/04/02 02:22:05;;;;;;;5.22;2.50;;;1.20;1.00;;;;;;4998578;28;20303;-80
2022/04/02 02:24:32;;;;;;;4.70;2.50;;;1.30;1.00;;;;;;4998139;28;20315;-80
2022/04/02 02:26:58;;;;;;;3.40;2.60;;;1.20;1.00;;;;;;4998214;28;20205;-80
2022/04/02 02:29:25;;;;;;;3.40;2.50;;;1.20;1.00;;;;;;4997877;28;20602;-80
2022/04/02 02:31:53;;;;;;;4.13;2.75;;;1.20;1.00;;;;;;4997044;28;20209;-80
2022/04/02 02:37:04;;;;;;;5.30;2.80;;;1.20;1.00;;;;;;4997187;28;20208;-80
2022/04/02 02:39:31;;;;;;;3.92;2.38;;;1.20;1.00;;;;;;5002230;28;20229;-79
2022/04/02 02:41:58;;;;;;;2.83;2.63;;;1.20;1.00;;;;;;5001882;28;20220;-80
2022/04/02 02:44:24;;;;;;;3.03;2.53;;;1.20;1.00;;;;;;4997309;28;20229;-79
2022/04/02 02:46:52;;;;;;;7.43;2.70;;;1.30;1.00;;;;;;4997440;28;20252;-80
2022/04/02 02:49:19;;;;;;;3.15;2.70;;;1.30;1.00;;;;;;4997366;28;20268;-80
2022/04/02 02:51:45;;;;;;;5.32;3.10;;;1.30;1.00;;;;;;4997843;28;20217;-80
2022/04/02 02:54:12;;;;;;;3.00;2.80;;;1.30;1.00;;;;;;4997327;28;20248;-80
2022/04/02 02:56:38;;;;;;;2.67;2.20;;;1.30;1.00;;;;;;4997519;28;20201;-80
2022/04/02 02:59:05;;;;;;;3.60;2.53;;;1.30;1.00;;;;;;4998357;28;20256;-80
2022/04/02 03:01:33;;;;;;;3.15;2.35;;;1.20;28.40;;;;;;5003682;28;20205;-79
2022/04/02 03:04:01;;;;;;;2.50;2.30;;;1.30;26.00;;;;;;5012151;28;20211;-79
2022/04/02 03:06:27;;;;;;;3.88;2.38;;;1.20;98.50;;;;;;5014623;28;20472;-80
2022/04/02 03:08:54;;;;;;;8.25;2.75;;;1.40;99.90;;;;;;5014310;28;20204;-79
2022/04/02 03:11:21;;;;;;;4.97;2.30;;;1.30;1.00;;;;;;5011885;28;20205;-79
2022/04/02 03:13:48;;;;;;;4.25;2.60;;;1.50;8.80;;;;;;5006808;28;20213;-79
2022/04/02 03:16:14;;;;;;;4.05;2.50;;;1.30;99.90;;;;;;5006083;28;20213;-79
2022/04/02 03:18:41;;;;;;;3.00;2.55;;;1.30;99.90;;;;;;5005678;28;20228;-78
2022/04/02 03:21:09;;;;;;;3.00;2.38;;;1.30;1.00;;;;;;5007326;28;20213;-78
2022/04/02 03:23:36;;;;;;;3.17;2.60;;;1.10;1.00;;;;;;5006701;28;20201;-79
2022/04/02 03:26:02;;;;;;;4.70;2.35;;;1.30;92.00;;;;;;5006830;28;20275;-79
2022/04/02 03:28:29;;;;;;;3.78;2.53;;;1.30;99.90;;;;;;5005803;28;20449;-79
2022/04/02 03:30:56;;;;;;;4.82;2.10;;;1.30;1.00;;;;;;5007400;28;20225;-79
2022/04/02 03:33:23;;;;;;;2.28;2.08;;;1.30;99.90;;;;;;5001934;28;20205;-80
2022/04/02 03:35:49;;;;;;;2.20;2.10;;;1.40;1.00;;;;;;4996603;28;20292;-80
2022/04/02 03:38:17;;;;;;;5.13;2.40;;;1.30;99.90;;;;;;4998147;28;20257;-80
2022/04/02 03:40:44;;;;;;;5.63;2.20;;;1.30;99.90;;;;;;5002296;28;20245;-79
2022/04/02 03:43:10;;;;;;;4.95;2.20;;;1.30;22.40;;;;;;5006263;28;20216;-79
2022/04/02 03:45:37;;;;;;;6.93;2.78;;;1.30;99.90;;;;;;5006529;28;20225;-79
2022/04/02 03:48:04;;;;;;;3.13;2.80;;;1.30;74.20;;;;;;5007887;28;20237;-79
2022/04/02 03:50:31;;;;;;;2.40;1.95;;;1.30;99.90;;;;;;5007209;28;20236;-79
2022/04/02 03:52:58;;;;;;;4.50;2.45;;;1.20;99.90;;;;;;5007399;28;20215;-79
2022/04/02 03:55:26;;;;;;;3.45;2.35;;;1.30;99.90;;;;;;5006673;28;20205;-79
2022/04/02 03:57:52;;;;;;;4.60;2.40;;;1.20;99.90;;;;;;5006833;28;20209;-79
2022/04/02 04:00:20;;;;;;;2.42;2.22;;;1.30;99.90;;;;;;4997868;28;20228;-79
2022/04/02 04:02:47;;;;;;;5.82;2.70;;;1.30;99.90;;;;;;4996681;28;20215;-79
2022/04/02 04:05:13;;;;;;;2.97;2.20;;;1.20;99.90;;;;;;4996329;28;20253;-80
2022/04/02 04:07:40;;;;;;;2.45;2.25;;;1.20;99.90;;;;;;4995887;28;20235;-79
2022/04/02 04:10:08;;;;;;;3.00;2.55;;;1.20;99.90;;;;;;4995548;28;20372;-79
2022/04/02 04:12:36;;;;;;;2.80;2.60;;;1.20;99.90;;;;;;4996004;28;20205;-79
2022/04/02 04:15:03;;;;;;;4.30;2.60;;;1.20;99.90;;;;;;4994805;28;20436;-79
2022/04/02 04:17:29;;;;;;;6.30;2.78;;;1.30;99.90;;;;;;4996319;28;20676;-79
2022/04/02 04:19:56;;;;;;;3.88;2.85;;;1.20;99.90;;;;;;4995924;28;20235;-79
2022/04/02 04:22:23;;;;;;;7.82;2.92;;;1.20;99.90;;;;;;4996034;28;20228;-80
2022/04/02 04:24:49;;;;;;;4.20;2.55;;;1.20;1.00;;;;;;4994932;28;20535;-79
2022/04/02 04:27:16;;;;;;;2.92;2.72;;;1.20;99.90;;;;;;4995008;28;20232;-79
2022/04/02 04:29:44;;;;;;;7.03;3.35;;;1.20;1.00;;;;;;4995193;28;20260;-79
2022/04/02 04:32:11;;;;;;;2.20;2.10;;;1.30;99.90;;;;;;4995223;28;20228;-79
2022/04/02 04:34:39;;;;;;;7.68;2.25;;;1.30;99.90;;;;;;4995095;28;20212;-79
2022/04/02 04:37:06;;;;;;;3.17;1.90;;;1.30;99.90;;;;;;4995223;28;20201;-79
2022/04/02 04:39:32;;;;;;;3.38;2.08;;;1.30;99.90;;;;;;4994346;28;20227;-79
2022/04/02 04:41:59;;;;;;;3.95;2.22;;;1.30;99.90;;;;;;4994845;28;20236;-79
2022/04/02 04:44:26;;;;;;;3.35;2.25;;;1.30;99.90;;;;;;4995191;28;20209;-79
2022/04/02 04:46:54;;;;;;;2.88;2.65;;;1.30;99.90;;;;;;4995784;28;20232;-79
2022/04/02 04:49:20;;;;;;;4.35;2.40;;;1.30;99.90;;;;;;4995603;28;20241;-80
2022/04/02 04:51:47;;;;;;;2.78;2.33;;;1.30;99.90;;;;;;4996053;28;20207;-80
2022/04/02 04:54:13;;;;;;;3.15;2.50;;;1.20;99.90;;;;;;4996624;28;20202;-79
2022/04/02 04:56:40;;;;;;;2.85;1.95;;;1.30;99.90;;;;;;5001992;28;20205;-79
2022/04/02 04:59:09;;;;;;;2.78;2.55;;;1.40;99.90;;;;;;5003702;28;20221;-79
2022/04/02 05:01:37;;;;;;;2.75;1.70;;;1.20;1.00;;;;;;5003414;28;20216;-79
2022/04/02 05:04:06;;;;;;;3.50;2.60;;;1.20;1.00;;;;;;5010161;28;20212;-78
2022/04/02 05:06:34;;;;;;;7.78;2.35;;;1.20;1.00;;;;;;5015260;28;20227;-78
2022/04/02 05:09:00;;;;;;;2.50;2.30;;;1.20;1.00;;;;;;5015654;28;20239;-78
2022/04/02 05:11:27;;;;;;;8.23;2.47;;;1.20;1.00;;;;;;5009051;28;20208;-79
2022/04/02 05:13:54;;;;;;;2.63;2.17;;;1.20;1.00;;;;;;5004770;28;20205;-79
2022/04/02 05:16:20;;;;;;;4.20;2.60;;;1.40;99.90;;;;;;5003914;28;20241;-79
2022/04/02 05:18:47;;;;;;;3.63;2.22;;;1.20;99.90;;;;;;5002069;28;20233;-79
2022/04/02 05:21:15;;;;;;;4.65;2.47;;;1.20;1.00;;;;;;5002559;28;20229;-80
2022/04/02 05:23:42;;;;;;;2.88;2.67;;;1.20;1.00;;;;;;5000337;28;20575;-79
2022/04/02 05:26:09;;;;;;;3.33;2.70;;;1.30;1.00;;;;;;5003239;28;20821;-79
2022/04/02 05:28:35;;;;;;;2.40;2.20;;;1.30;1.00;;;;;;5002456;28;20205;-79
2022/04/02 05:31:03;;;;;;;3.55;2.50;;;1.30;1.00;;;;;;5000010;28;20290;-79
2022/04/02 05:33:30;;;;;;;7.78;2.45;;;1.30;1.00;;;;;;4999959;28;20579;-79
2022/04/02 05:35:58;;;;;;;3.47;2.50;;;1.30;1.00;;;;;;5000579;28;20208;-80
2022/04/02 05:38:27;;;;;;;4.38;3.10;;;1.40;1.00;;;;;;5005065;28;20227;-79
2022/04/02 05:40:53;;;;;;;3.83;2.92;;;1.40;99.90;;;;;;5006609;28;20221;-79
2022/04/02 05:43:20;;;;;;;5.95;2.50;;;1.40;1.00;;;;;;5006411;28;20216;-79
2022/04/02 05:45:47;;;;;;;3.28;2.97;;;1.40;1.00;;;;;;5001552;28;20244;-79
2022/04/02 05:48:14;;;;;;;3.58;2.35;;;1.40;1.00;;;;;;5005601;28;20213;-79
2022/04/02 05:50:42;;;;;;;4.25;2.88;;;1.40;1.00;;;;;;5006663;28;20236;-79
2022/04/02 05:53:09;;;;;;;4.30;2.30;;;1.40;1.00;;;;;;5001809;28;20245;-79
2022/04/02 05:55:37;;;;;;;2.58;2.38;;;1.50;1.00;;;;;;4998301;28;20236;-80
2022/04/02 05:58:04;;;;;;;8.35;3.13;;;1.50;1.00;;;;;;4998507;28;20296;-79
2022/04/02 06:00:31;;;;;;;2.90;2.58;;;1.50;1.00;;;;;;4998400;28;20746;-80
2022/04/02 06:02:57;;;;;;;3.25;2.05;;;1.50;99.90;;;;;;4998304;28;20223;-79
2022/04/02 06:05:24;;;;;;;4.18;1.77;;;1.60;1.00;;;;;;4998882;28;20699;-79
2022/04/02 06:07:50;;;;;;;2.63;2.42;;;1.60;99.90;;;;;;5013425;28;20240;-79
2022/04/02 06:10:17;;;;;;;3.72;2.58;;;1.60;1.00;;;;;;5015595;28;20229;-79
2022/04/02 06:12:47;;;;;;;3.17;2.08;;;1.70;99.90;;;;;;5013635;28;20695;-78
2022/04/02 06:15:13;;;;;;;4.63;2.90;;;1.70;99.90;;;;;;5013311;28;20208;-78
2022/04/02 06:17:40;;;;;;;5.40;2.50;;;1.70;99.90;;;;;;5014147;28;20211;-79
2022/04/02 06:20:08;;;;;;;3.00;2.50;;;1.80;99.90;;;;;;5001691;28;20255;-80
2022/04/02 06:22:35;;;;;;;2.80;2.60;;;1.80;99.90;;;;;;4998964;28;20201;-80
2022/04/02 06:25:03;;;;;;;3.05;2.60;;;1.90;99.90;;;;;;4998667;28;20239;-80
2022/04/02 06:27:29;;;;;;;3.38;2.55;;;2.00;99.90;;;;;;4998982;28;20263;-81
2022/04/02 06:29:58;;;;;;;2.95;2.65;;;2.00;99.90;;;;;;4998950;28;20248;-81
2022/04/02 06:32:25;;;;;;;3.08;2.88;;;2.00;99.90;;;;;;4998098;28;20205;-80
2022/04/02 06:34:52;;;;;;;4.85;3.22;;;2.10;99.90;;;;;;4997806;28;20259;-80
2022/04/02 06:37:19;;;;;;;4.25;2.45;;;2.10;99.90;;;;;;4998009;28;20217;-79
2022/04/02 06:39:45;;;;;;;5.68;3.17;;;2.10;99.90;;;;;;4999230;28;20224;-80
2022/04/02 06:42:12;;;;;;;4.07;2.70;;;2.20;99.90;;;;;;4998766;28;20201;-79
2022/04/02 06:44:39;;;;;;;2.60;2.40;;;2.20;99.90;;;;;;5002228;28;20236;-79
2022/04/02 06:47:07;;;;;;;3.90;2.88;;;2.30;99.90;;;;;;5001724;28;20364;-79
2022/04/02 06:49:33;;;;;;;4.28;2.78;;;2.30;1.00;;;;;;5022272;23;20571;-78
2022/04/02 06:52:00;;;;;;;3.20;2.50;;;2.50;99.90;;;;;;4989951;28;20209;-78
2022/04/02 06:54:27;;;;;;;3.65;2.78;;;2.60;27.90;;;;;;4991285;28;20213;-79
2022/04/02 06:56:55;;;;;;;3.17;2.63;;;2.60;30.80;;;;;;4980888;28;20209;-79
2022/04/02 06:59:22;;;;;;;3.22;2.35;;;2.60;1.00;;;;;;4981954;28;20546;-80
2022/04/02 07:01:49;;;;;;;2.78;2.50;;;2.90;1.00;;;;;;4981034;28;20237;-79
2022/04/02 07:04:17;;;;;;;7.20;2.70;;;3.00;1.00;;;;;;4981049;28;20278;-79
2022/04/02 07:06:45;;;;;;;2.67;2.28;;;3.10;1.00;;;;;;4980778;28;20222;-79
2022/04/02 07:09:14;;;;;;;3.75;1.95;;;3.10;1.00;;;;;;4995078;28;20252;-79
2022/04/02 07:11:41;;;;;;;2.00;1.80;;;3.10;1.00;;;;;;4989761;28;20209;-80
2022/04/02 07:14:09;;;;;;;7.70;2.60;;;3.00;1.00;;;;;;4986506;28;20210;-79
2022/04/02 07:16:36;;;;;;;3.92;2.40;;;3.30;99.90;;;;;;4989655;28;20197;-79
2022/04/02 07:19:03;;;;;;;2.30;2.10;;;3.30;1.00;;;;;;4990568;28;20264;-79
2022/04/02 07:21:34;;;;;;;3.45;2.58;;;3.30;1.00;;;;;;4986765;28;20268;-79
2022/04/02 07:24:00;;;;;;;4.07;2.10;;;3.10;1.00;;;;;;4982131;28;20224;-79
2022/04/02 07:26:27;;;;;;;4.75;2.80;;;3.20;1.00;;;;;;4981410;28;20260;-80
2022/04/02 07:28:54;;;;;;;6.35;2.35;;;3.40;1.00;;;;;;4981207;28;20231;-79
2022/04/02 07:31:21;;;;;;;4.85;2.20;;;3.40;1.00;;;;;;4980854;28;20254;-78
2022/04/02 07:33:48;;;;;;;2.50;2.10;;;3.30;1.00;;;;;;4980026;28;20210;-79
2022/04/02 07:36:24;;;;;;;4.38;2.55;;;3.50;1.00;;;;;;4979616;28;20202;-79
2022/04/02 07:39:00;;;;;;;2.83;2.63;;;3.50;1.00;;;;;;4979459;28;20292;-78
2022/04/02 07:41:37;;;;;;;4.97;3.03;;;3.70;1.00;;;;;;4979928;28;20288;-78
2022/04/02 07:44:08;;;;;;;4.75;2.20;;;3.80;1.00;;;;;;4980542;28;20186;-78
2022/04/02 07:46:39;;;;;;;5.35;2.58;;;3.90;1.00;;;;;;4982001;28;20704;-78
2022/04/02 07:49:10;;;;;;;5.07;2.95;;;3.80;1.00;;;;;;4981095;28;20188;-78
2022/04/02 07:51:39;;;;;;;3.05;1.85;;;3.90;1.00;;;;;;4980521;28;20641;-79
2022/04/02 07:54:10;;;;;;;2.30;1.90;;;3.90;1.00;;;;;;4979784;28;20210;-79
2022/04/02 07:56:38;;;;;;;4.45;2.20;;;3.90;1.00;;;;;;4979769;28;20189;-80
2022/04/02 07:59:08;;;;;;;5.15;2.22;;;3.90;99.90;;;;;;4981226;28;20206;-79
2022/04/02 08:01:35;;;;;;;2.30;1.80;;;3.90;99.90;;;;;;4986458;28;20317;-78
2022/04/02 08:04:04;;;;;;;2.42;2.22;;;4.00;99.90;;;;;;4979689;28;20261;-79
2022/04/02 08:06:32;;;;;;;5.65;2.53;;;3.90;1.00;;;;;;4981112;28;20268;-78
2022/04/02 08:08:59;;;;;;;2.38;1.73;;;3.90;99.90;;;;;;4983814;28;20209;-79
2022/04/02 08:11:28;;;;;;;2.65;2.10;;;4.00;99.90;;;;;;4985402;28;20222;-79
2022/04/02 08:13:55;;;;;;;3.95;2.75;;;4.10;99.90;;;;;;4986293;28;20202;-79
2022/04/02 08:16:22;;;;;;;1.90;1.63;;;4.20;99.90;;;;;;4984477;28;20202;-79
2022/04/02 08:18:49;;;;;;;3.47;2.70;;;4.00;99.90;;;;;;4980003;28;20206;-79
2022/04/02 08:21:16;;;;;;;4.53;1.92;;;4.20;1.00;;;;;;4977890;28;20299;-80
2022/04/02 08:23:42;;;;;;;2.70;2.08;;;4.20;99.90;;;;;;4978896;28;20209;-79
2022/04/02 08:26:22;;;;;;;2.00;1.90;;;4.10;99.90;;;;;;4979529;28;20222;-78
2022/04/02 08:29:10;;;;;;;6.78;2.60;;;4.00;99.90;;;;;;4981219;28;20217;-79
2022/04/02 08:31:52;;;;;;;1.60;1.50;;;3.90;99.90;;;;;;4980681;28;20283;-79
2022/04/02 08:34:35;;;;;;;2.45;2.25;;;4.10;99.90;;;;;;4984122;28;20189;-79
2022/04/02 08:37:13;;;;;;;2.40;2.20;;;4.20;99.90;;;;;;4983515;28;20557;-80
2022/04/02 08:39:50;;;;;;;3.28;2.10;;;4.40;99.90;;;;;;4981767;28;20263;-79
2022/04/02 08:43:12;;;;;;;3.20;2.90;;;4.20;99.90;;;;;;4982871;28;20194;-79
2022/04/02 08:45:57;;;;;;;3.45;2.60;;;4.10;1.00;;;;;;4953303;28;20244;-79
2022/04/02 08:48:28;;;;;;;2.10;1.85;;;4.20;99.90;;;;;;4985418;28;20197;-80
2022/04/02 08:51:08;;;;;;;2.58;2.35;;;4.00;99.90;;;;;;4982558;28;20234;-79
2022/04/02 08:53:49;;;;;;;2.85;2.33;;;4.10;99.90;;;;;;4985425;28;20204;-79
2022/04/02 08:56:21;;;;;;;2.65;1.90;;;4.00;99.90;;;;;;4983968;28;20288;-79
2022/04/02 08:58:58;;;;;;;2.75;2.30;;;4.20;99.90;;;;;;4982937;28;20190;-79
2022/04/02 09:01:30;;;;;;;1.88;1.60;;;4.30;99.90;;;;;;4982564;28;20229;-79
2022/04/02 09:04:43;;;;;;;3.08;1.90;;;4.50;99.90;;;;;;4983344;28;20295;-78
2022/04/02 09:07:43;;;;;;;4.70;2.13;;;4.60;99.90;;;;;;4982827;28;20222;-80
2022/04/02 09:10:47;;;;;;;2.28;2.08;;;4.70;99.90;;;;;;4993342;28;20284;-78
2022/04/02 09:13:43;;;;;;;1.83;1.58;;;4.70;99.90;;;;;;4997952;28;20193;-79
2022/04/02 09:16:17;;;;;;;4.38;2.45;;;4.80;99.90;;;;;;4997473;28;20186;-78
2022/04/02 09:18:58;;;;;;;3.10;2.15;;;4.80;99.90;;;;;;4996585;28;20204;-78
2022/04/02 09:21:31;;;;;;;3.15;2.17;;;4.80;99.90;;;;;;4995746;28;20222;-77
2022/04/02 09:24:09;;;;;;;3.83;2.25;;;4.80;99.90;;;;;;4995419;28;20261;-78
2022/04/02 09:26:58;;;;;;;2.97;2.70;;;4.80;99.90;;;;;;4989009;28;20210;-79
2022/04/02 09:29:29;;;;;;;2.20;2.05;;;5.30;1.00;;;;;;4985253;28;20193;-78
2022/04/02 09:32:24;;;;;;;3.50;3.20;;;5.40;99.90;;;;;;4984984;28;20190;-78
2022/04/02 09:35:21;;;;;;;4.55;3.03;;;5.40;99.90;;;;;;4983266;28;20197;-79
2022/04/02 09:38:12;;;;;;;2.42;2.22;;;5.00;99.90;;;;;;4983645;28;20193;-81
2022/04/02 09:40:45;;;;;;;3.75;3.35;;;5.00;99.90;;;;;;4982004;28;20229;-81
2022/04/02 09:43:18;;;;;;;2.45;2.22;;;4.90;99.90;;;;;;4982826;28;20564;-78
2022/04/02 09:45:53;;;;;;;2.70;2.50;;;5.10;99.90;;;;;;4981908;28;20198;-79
2022/04/02 09:48:27;;;;;;;5.55;3.40;;;5.20;99.90;;;;;;4982837;28;20618;-79
2022/04/02 09:50:57;;;;;;;7.22;2.33;;;5.50;99.90;;;;;;4986106;28;20703;-79
2022/04/02 09:53:26;;;;;;;3.97;2.53;;;5.60;99.90;;;;;;4992929;28;20237;-79
2022/04/02 09:56:08;;;;;;;4.30;3.22;;;5.60;99.90;;;;;;4993041;28;20209;-79
2022/04/02 09:59:06;;;;;;;2.63;2.42;;;5.60;99.90;;;;;;4994009;28;20228;-78
2022/04/02 10:01:39;;;;;;;3.78;2.33;;;5.20;99.90;;;;;;4991603;28;20233;-80
2022/04/02 10:04:19;;;;;;;2.30;2.10;;;5.30;99.90;;;;;;4989401;28;20228;-79
2022/04/02 10:06:50;;;;;;;2.50;2.30;;;5.20;99.90;;;;;;4995280;28;20680;-77
2022/04/02 10:09:20;;;;;;;6.35;3.30;;;5.10;1.00;;;;;;4994379;28;20190;-77
2022/04/02 10:11:53;;;;;;;2.55;2.30;;;5.20;99.90;;;;;;4996038;28;20649;-78
2022/04/02 10:14:22;;;;;;;4.60;2.30;;;5.60;99.90;;;;;;4989646;28;20190;-79
2022/04/02 10:16:52;;;;;;;6.05;3.45;;;5.90;99.90;;;;;;4991661;28;20198;-79
2022/04/02 10:19:21;;;;;;;6.72;2.45;;;5.90;1.00;;;;;;4987511;28;20209;-79
2022/04/02 10:21:50;;;;;;;6.35;2.80;;;6.00;99.90;;;;;;4992109;28;20214;-78
2022/04/02 10:24:21;;;;;;;4.05;3.72;;;5.70;99.90;;;;;;4991453;28;20281;-78
2022/04/02 10:26:50;;;;;;;4.97;3.17;;;5.80;99.90;;;;;;4985225;28;20237;-79
2022/04/02 10:29:31;;;;;;;4.32;2.72;;;5.80;1.00;;;;;;4981449;28;20344;-80
2022/04/02 10:32:01;;;;;;;3.42;3.22;;;5.80;99.90;;;;;;4980777;28;20248;-79
2022/04/02 10:34:48;;;;;;;3.65;3.35;;;5.80;99.90;;;;;;4980599;28;20616;-79
2022/04/02 10:37:17;;;;;;;4.75;4.25;;;5.80;99.90;;;;;;4979080;28;20197;-79
2022/04/02 10:39:53;;;;;;;3.88;3.40;;;5.80;99.90;;;;;;4983070;28;20221;-80
2022/04/02 10:42:29;;;;;;;4.63;2.83;;;6.00;99.90;;;;;;4987809;28;20204;-77
2022/04/02 10:44:59;;;;;;;4.60;4.22;;;6.20;99.90;;;;;;4990135;28;20188;-78
2022/04/02 10:47:29;;;;;;;6.63;3.47;;;6.20;99.90;;;;;;4987946;28;20222;-78
2022/04/02 10:50:04;;;;;;;4.50;3.45;;;6.00;99.90;;;;;;4990065;28;20310;-78
2022/04/02 10:52:34;;;;;;;5.57;3.13;;;6.20;99.90;;;;;;4982007;28;20252;-79
2022/04/02 10:55:01;;;;;;;3.53;3.33;;;6.50;99.90;;;;;;4981010;28;20292;-79
2022/04/02 10:57:29;;;;;;;7.38;2.83;;;6.40;99.90;;;;;;4979960;28;20205;-80
2022/04/02 11:00:01;;;;;;;3.72;3.42;;;6.10;99.90;;;;;;4979660;28;20574;-79
2022/04/02 11:02:38;;;;;;;3.35;2.78;;;5.90;99.90;;;;;;4980281;28;20200;-80
2022/04/02 11:05:07;;;;;;;2.75;2.55;;;5.90;99.90;;;;;;4979863;28;20336;-80
2022/04/02 11:07:40;;;;;;;5.20;3.10;;;6.20;99.90;;;;;;4980118;28;20648;-79
2022/04/02 11:10:08;;;;;;;3.28;2.97;;;6.40;1.00;;;;;;4980815;28;20237;-80
2022/04/02 11:12:38;;;;;;;4.38;3.20;;;6.50;99.90;;;;;;4979023;28;20209;-79
2022/04/02 11:15:10;;;;;;;3.85;2.72;;;6.40;99.90;;;;;;4979501;28;20201;-79
2022/04/02 11:17:41;;;;;;;8.15;2.63;;;6.20;99.90;;;;;;4980384;28;20253;-80
2022/04/02 11:20:11;;;;;;;2.88;2.60;;;6.20;1.00;;;;;;4978329;28;20230;-80
2022/04/02 11:23:12;;;;;;;3.42;3.22;;;6.40;99.90;;;;;;4978927;28;20344;-79
2022/04/02 11:25:46;;;;;;;3.00;2.80;;;6.20;99.90;;;;;;4978893;28;20668;-79
2022/04/02 11:28:13;;;;;;;4.30;2.90;;;6.70;99.90;;;;;;4980849;28;20600;-80
2022/04/02 11:30:42;;;;;;;2.80;2.40;;;6.80;99.90;;;;;;4986084;28;20229;-79
2022/04/02 11:33:10;;;;;;;9.77;3.60;;;6.90;99.90;;;;;;4981501;28;20205;-79
2022/04/02 11:35:39;;;;;;;2.65;2.20;;;6.90;99.90;;;;;;4979340;28;20202;-80
2022/04/02 11:38:45;;;;;;;4.45;2.50;;;6.40;99.90;;;;;;4979157;28;20206;-80
2022/04/02 11:41:19;;;;;;;4.03;2.10;;;6.30;99.90;;;;;;4903530;29;20613;-79
2022/04/02 11:43:46;;;;;;;5.93;2.72;;;6.50;99.90;;;;;;4903132;29;20268;-78
2022/04/02 11:46:14;;;;;;;3.25;2.72;;;7.00;99.90;;;;;;4942763;28;20209;-78
2022/04/02 11:48:51;;;;;;;2.67;2.30;;;6.80;99.90;;;;;;4986203;28;20249;-79
2022/04/02 11:51:20;;;;;;;4.18;2.45;;;6.70;99.90;;;;;;4990953;28;20237;-77
2022/04/02 11:53:48;;;;;;;3.25;2.30;;;6.00;1.00;;;;;;4989076;28;20240;-77
2022/04/02 11:56:29;;;;;;;6.13;2.40;;;6.30;1.00;;;;;;4989173;28;20221;-78
2022/04/02 11:58:57;;;;;;;2.30;2.10;;;6.20;99.90;;;;;;4979987;28;20240;-79
2022/04/02 12:01:24;;;;;;;3.38;2.42;;;6.80;1.00;;;;;;4981847;28;20244;-78
2022/04/02 12:04:08;;;;;;;3.10;2.45;;;6.60;1.00;;;;;;4986332;28;20205;-79
2022/04/02 12:06:36;;;;;;;2.60;2.15;;;6.60;1.00;;;;;;4987918;28;20190;-79
2022/04/02 12:09:12;;;;;;;3.90;2.75;;;6.40;99.90;;;;;;4980046;28;20213;-81
2022/04/02 12:11:41;;;;;;;2.65;2.30;;;6.70;99.90;;;;;;4981315;28;20212;-79
2022/04/02 12:14:08;;;;;;;2.35;2.15;;;6.90;99.90;;;;;;4988863;28;20236;-79
2022/04/02 12:16:38;;;;;;;3.63;2.45;;;6.20;1.00;;;;;;4986451;28;20209;-80
2022/04/02 12:19:09;;;;;;;2.67;2.47;;;6.30;99.90;;;;;;4985665;28;20202;-79
2022/04/02 12:21:42;;;;;;;2.75;2.17;;;6.30;99.90;;;;;;4986441;28;20312;-79
2022/04/02 12:24:12;;;;;;;7.30;2.80;;;6.10;99.90;;;;;;4983799;28;20190;-79
2022/04/02 12:26:39;;;;;;;3.35;2.90;;;5.90;99.90;;;;;;4979400;28;20301;-78
2022/04/02 12:29:06;;;;;;;3.40;2.47;;;5.40;99.90;;;;;;4985537;28;20221;-77
2022/04/02 12:31:34;;;;;;;2.25;2.05;;;5.20;99.90;;;;;;4986249;28;20230;-79
2022/04/02 12:34:01;;;;;;;3.80;2.78;;;5.30;99.90;;;;;;4985879;28;20224;-79
2022/04/02 12:36:33;;;;;;;2.25;2.15;;;5.30;1.00;;;;;;4992040;28;20205;-78
2022/04/02 12:39:06;;;;;;;3.03;2.72;;;5.40;99.90;;;;;;4986717;28;20221;-78
2022/04/02 12:41:45;;;;;;;3.75;2.83;;;5.50;99.90;;;;;;4986357;28;20285;-79
2022/04/02 12:44:13;;;;;;;3.13;2.40;;;5.60;99.90;;;;;;4985122;28;20506;-78
2022/04/02 12:46:40;;;;;;;3.22;2.92;;;5.60;99.90;;;;;;4983310;28;20677;-79
2022/04/02 12:49:06;;;;;;;2.33;2.13;;;5.60;99.90;;;;;;4984986;28;20229;-80
2022/04/02 12:51:33;;;;;;;2.22;1.70;;;5.70;99.90;;;;;;4984333;28;20248;-79
2022/04/02 12:54:01;;;;;;;2.65;2.35;;;5.80;99.90;;;;;;4984478;28;20206;-79
2022/04/02 12:56:30;;;;;;;4.35;2.90;;;5.80;99.90;;;;;;4981004;28;20214;-79
2022/04/02 12:58:59;;;;;;;3.63;3.35;;;6.10;99.90;;;;;;4980093;28;20234;-79
2022/04/02 13:01:32;;;;;;;2.50;1.98;;;6.00;99.90;;;;;;4979108;28;20225;-79
2022/04/02 13:04:08;;;;;;;2.30;2.10;;;5.90;99.90;;;;;;4984186;28;20577;-79
2022/04/02 13:06:36;;;;;;;3.10;1.80;;;5.70;99.90;;;;;;4979265;28;20236;-79
2022/04/02 13:09:05;;;;;;;2.97;2.47;;;5.80;99.90;;;;;;4988395;28;20229;-78
2022/04/02 13:11:46;;;;;;;4.00;1.90;;;5.60;99.90;;;;;;4989938;28;20326;-77
2022/04/02 13:14:16;;;;;;;3.67;1.90;;;5.50;99.90;;;;;;4990759;28;20220;-78
2022/04/02 13:16:47;;;;;;;5.72;2.10;;;5.20;1.00;;;;;;4993526;28;20193;-82
2022/04/02 13:22:05;;;;;;;2.60;2.40;;;5.30;99.90;;;;;;4993388;28;20192;-80